KDCU/DCU METAR and TAF weather

Enter ICAO airport designator
Station Type Date Time Source
KDCU METAR 2019/12/06 03:53 UTC NOAA

KDCU 060353Z AUTO 11003KT 10SM BKN120 10/03 A3014 RMK AO2 SLP205 T01000028 $


Station Type Date Time Source
KDCU Decoded METAR 2019/12/06 03:53 UTC NOAA

PRYOR FIELD, AL, United States (KDCU) 34-39N 086-57W 176M
Dec 05, 2019 - 10:53 PM EST / 2019.12.06 0353 UTC
Wind: from the ESE (110 degrees) at 3 MPH (3 KT):0
Visibility: 10 mile(s):0
Sky conditions: mostly cloudy
Temperature: 50.0 F (10.0 C)
Dew Point: 37.0 F (2.8 C)
Relative Humidity: 60%
Pressure (altimeter): 30.14 in. Hg (1020 hPa)
ob: KDCU 060353Z AUTO 11003KT 10SM BKN120 10/03 A3014 RMK AO2 SLP205 T01000028
cycle: 4

Station Type Date Time Source
KDCU TAF UTC NOAA

Error!

Example: see airport list